Time;durP1;ratioP1;P1;durP2;ratioP2;P2;SDS_P1;SDS_P2;PMS_P1;PMS_P2;Temp;Humidity;BMP_temperature;BMP_pressure;BME280_temperature;BME280_humidity;BME280_pressure;Samples;Min_cycle;Max_cycle;Signal;HPM_P1;HPM_P2
2021/07/28 00:00:18;;;;;;;52.55;28.27;;;;;;;16.83;83.43;100931.16;5058062;28;20021;-84
2021/07/28 00:02:43;;;;;;;55.80;27.35;;;;;;;16.77;83.42;100921.78;5063671;28;20079;-83
2021/07/28 00:05:09;;;;;;;54.53;27.42;;;;;;;16.72;83.92;100913.28;5061832;28;20041;-83
2021/07/28 00:07:35;;;;;;;54.90;28.08;;;;;;;16.67;83.91;100919.00;5062563;28;20028;-84
2021/07/28 00:10:00;;;;;;;51.55;28.98;;;;;;;16.74;83.77;100915.84;5061624;28;20082;-83
2021/07/28 00:12:26;;;;;;;58.95;28.35;;;;;;;16.55;84.37;100904.75;5060442;28;20108;-84
2021/07/28 00:14:51;;;;;;;51.72;28.25;;;;;;;16.63;83.95;100906.84;5055292;28;20119;-84
2021/07/28 00:17:17;;;;;;;53.88;28.20;;;;;;;16.66;84.16;100917.28;5053934;28;20033;-84
2021/07/28 00:19:55;;;;;;;56.58;28.90;;;;;;;16.53;84.27;100913.88;5053788;28;20454;-84
2021/07/28 00:25:05;;;;;;;52.38;28.67;;;;;;;16.51;84.38;100905.97;5053696;28;20063;-84
2021/07/28 00:27:30;;;;;;;58.33;27.85;;;;;;;16.50;84.32;100900.75;5054223;28;20055;-84
2021/07/28 00:29:56;;;;;;;58.28;29.80;;;;;;;16.38;84.90;100905.25;5068889;28;20029;-84
2021/07/28 00:32:21;;;;;;;59.28;28.92;;;;;;;16.33;85.17;100894.06;5069942;28;20024;-84
2021/07/28 00:34:47;;;;;;;55.97;28.17;;;;;;;16.39;84.70;100889.09;5059713;22;20068;-84
2021/07/28 00:37:12;;;;;;;63.22;30.13;;;;;;;16.33;84.68;100894.06;5051444;28;20133;-84
2021/07/28 00:39:37;;;;;;;56.53;27.55;;;;;;;16.29;84.68;100888.97;5053228;28;20116;-85
2021/07/28 00:42:03;;;;;;;53.55;26.95;;;;;;;16.31;84.78;100888.84;5051930;28;20111;-82
2021/07/28 00:44:28;;;;;;;60.78;28.73;;;;;;;16.27;84.79;100887.38;5053091;28;20025;-82
2021/07/28 00:46:54;;;;;;;54.95;27.52;;;;;;;16.23;85.08;100891.22;5053030;28;20036;-84
2021/07/28 00:49:19;;;;;;;53.78;26.70;;;;;;;16.16;85.10;100881.03;5053102;28;20375;-84
2021/07/28 00:51:45;;;;;;;57.90;28.38;;;;;;;16.20;84.89;100879.00;5035092;28;20467;-82
2021/07/28 00:54:10;;;;;;;54.78;27.00;;;;;;;16.19;84.86;100872.78;5052093;28;20457;-84
2021/07/28 00:56:36;;;;;;;58.88;27.55;;;;;;;16.08;85.17;100871.94;5053297;28;20040;-84
2021/07/28 00:59:01;;;;;;;52.55;27.52;;;;;;;16.14;85.25;100874.13;5053332;28;20073;-83
2021/07/28 01:01:27;;;;;;;48.83;25.88;;;;;;;16.09;84.92;100870.94;5052973;28;20021;-83
2021/07/28 01:03:53;;;;;;;47.45;24.83;;;;;;;16.09;84.81;100870.94;5053140;28;20039;-83
2021/07/28 01:06:18;;;;;;;48.28;25.20;;;;;;;16.02;84.88;100868.75;5053810;28;20025;-84
2021/07/28 01:08:43;;;;;;;49.13;25.70;;;;;;;16.11;84.26;100871.69;5053492;28;20102;-83
2021/07/28 01:11:09;;;;;;;44.35;23.88;;;;;;;16.01;85.11;100871.53;5052800;28;20029;-83
2021/07/28 01:13:36;;;;;;;45.53;23.83;;;;;;;16.02;84.55;100859.91;5051479;28;20024;-83
2021/07/28 01:16:09;;;;;;;43.67;24.13;;;;;;;15.97;84.60;100870.91;5052355;28;20143;-84
2021/07/28 01:18:35;;;;;;;44.22;23.13;;;;;;;16.03;84.42;100862.47;5051460;28;20096;-83
2021/07/28 01:21:00;;;;;;;45.47;23.98;;;;;;;16.06;84.00;100861.38;5051306;28;20472;-82
2021/07/28 01:23:29;;;;;;;44.53;23.08;;;;;;;16.00;84.01;100862.69;5054408;28;20037;-83
2021/07/28 01:25:55;;;;;;;41.78;22.80;;;;;;;16.03;84.04;100856.28;5052373;28;20033;-83
2021/07/28 01:28:23;;;;;;;44.72;23.65;;;;;;;15.92;84.53;100857.88;5051553;28;20487;-83
2021/07/28 01:31:01;;;;;;;40.25;21.58;;;;;;;15.98;84.10;100856.63;5052541;28;20040;-83
2021/07/28 01:33:28;;;;;;;41.38;22.52;;;;;;;15.95;84.00;100848.81;5052345;28;20417;-83
2021/07/28 01:35:53;;;;;;;37.33;20.67;;;;;;;16.00;83.59;100849.38;5052568;28;20502;-83
2021/07/28 01:38:25;;;;;;;42.08;21.30;;;;;;;16.05;83.39;100847.19;5052482;28;20025;-84
2021/07/28 01:40:50;;;;;;;34.50;20.67;;;;;;;15.97;83.82;100846.03;5035677;28;20460;-84
2021/07/28 01:43:16;;;;;;;37.88;20.58;;;;;;;15.98;83.52;100840.63;5052363;28;20029;-83
2021/07/28 01:45:41;;;;;;;36.97;20.73;;;;;;;15.92;83.78;100838.38;5052663;28;20033;-83
2021/07/28 01:48:10;;;;;;;41.88;21.98;;;;;;;15.94;83.82;100839.97;5052427;28;20033;-84
2021/07/28 01:50:36;;;;;;;37.80;20.48;;;;;;;15.96;83.81;100839.84;5034569;28;20475;-83
2021/07/28 01:53:02;;;;;;;39.63;21.30;;;;;;;15.91;84.02;100834.00;5052640;28;20025;-83
2021/07/28 01:55:27;;;;;;;41.17;21.10;;;;;;;15.95;84.00;100843.50;5052449;28;20028;-83
2021/07/28 01:57:56;;;;;;;37.63;22.13;;;;;;;15.86;84.24;100850.34;5052388;28;20025;-83
2021/07/28 02:00:22;;;;;;;40.65;21.25;;;;;;;15.91;83.72;100853.53;5052775;28;20029;-82
2021/07/28 02:02:47;;;;;;;39.45;20.33;;;;;;;15.89;83.98;100849.28;5052259;28;20063;-83
2021/07/28 02:05:13;;;;;;;40.85;21.50;;;;;;;15.83;84.21;100845.25;5052578;28;20036;-83
2021/07/28 02:07:38;;;;;;;37.63;21.02;;;;;;;15.77;84.31;100840.38;5034724;28;20067;-83
2021/07/28 02:10:04;;;;;;;41.60;21.38;;;;;;;15.84;83.92;100846.97;5052147;28;20079;-83
2021/07/28 02:12:29;;;;;;;43.00;22.52;;;;;;;15.81;84.16;100842.69;5052859;28;20117;-84
2021/07/28 02:14:55;;;;;;;44.83;22.98;;;;;;;15.73;84.50;100833.59;5052071;28;20079;-84
2021/07/28 02:17:20;;;;;;;47.40;23.80;;;;;;;15.78;84.48;100842.09;5052118;28;20036;-84
2021/07/28 02:19:46;;;;;;;48.50;23.67;;;;;;;15.71;84.57;100836.38;5052195;28;20029;-84
2021/07/28 02:22:11;;;;;;;45.80;23.75;;;;;;;15.74;84.52;100846.81;5034261;28;20021;-84
2021/07/28 02:24:38;;;;;;;48.60;23.88;;;;;;;15.64;84.90;100843.97;5051936;28;20025;-83
2021/07/28 02:27:04;;;;;;;46.58;24.02;;;;;;;15.68;84.92;100845.47;5034285;28;20021;-83
2021/07/28 02:29:31;;;;;;;51.00;23.98;;;;;;;15.74;84.54;100843.28;5036693;28;20530;-83
2021/07/28 02:31:57;;;;;;;53.35;24.42;;;;;;;15.64;85.15;100840.47;5055610;28;20048;-84
2021/07/28 02:34:23;;;;;;;54.08;25.17;;;;;;;15.72;84.79;100842.56;5055259;28;20052;-83
2021/07/28 02:36:48;;;;;;;53.17;25.42;;;;;;;15.71;85.09;100831.03;5055303;28;20037;-83
2021/07/28 02:39:14;;;;;;;55.17;25.15;;;;;;;15.69;84.82;100836.50;5055273;28;20021;-83
2021/07/28 02:41:39;;;;;;;53.92;25.50;;;;;;;15.65;85.30;100837.69;5055209;28;20029;-83
2021/07/28 02:44:05;;;;;;;54.83;25.17;;;;;;;15.72;84.86;100826.56;5055473;28;20536;-83
2021/07/28 02:46:30;;;;;;;56.10;25.25;;;;;;;15.65;85.16;100831.50;5055324;28;20069;-83
2021/07/28 02:48:56;;;;;;;55.53;25.00;;;;;;;15.70;84.87;100827.50;5055307;28;20489;-84
2021/07/28 02:51:21;;;;;;;62.13;27.20;;;;;;;15.63;85.22;100820.94;5055215;28;20035;-84
2021/07/28 02:53:47;;;;;;;57.67;26.35;;;;;;;15.60;85.63;100826.50;5055197;28;20025;-83
2021/07/28 02:56:12;;;;;;;59.33;26.40;;;;;;;15.57;85.57;100826.75;5055300;28;20036;-83
2021/07/28 02:58:37;;;;;;;59.33;25.85;;;;;;;15.61;85.53;100819.38;5055300;28;20031;-84
2021/07/28 03:01:03;;;;;;;60.70;26.48;;;;;;;15.64;85.16;100822.66;5037607;28;20084;-84
2021/07/28 03:03:28;;;;;;;65.40;26.88;;;;;;;15.60;85.58;100825.66;5054865;28;20029;-84
2021/07/28 03:05:54;;;;;;;65.47;26.90;;;;;;;15.57;85.77;100827.59;5054921;28;20047;-83
2021/07/28 03:08:19;;;;;;;58.92;26.20;;;;;;;15.59;85.55;100821.31;5057126;28;20021;-83
2021/07/28 03:10:48;;;;;;;60.15;25.75;;;;;;;15.63;85.43;100825.44;5057219;28;20036;-82
2021/07/28 03:13:13;;;;;;;57.67;25.60;;;;;;;15.56;85.57;100822.38;5039313;28;20032;-83
2021/07/28 03:15:38;;;;;;;59.13;25.73;;;;;;;15.65;85.33;100821.69;5057273;28;20021;-82
2021/07/28 03:18:04;;;;;;;58.70;25.75;;;;;;;15.62;85.58;100829.06;5038755;28;20035;-83
2021/07/28 03:20:29;;;;;;;56.25;25.17;;;;;;;15.59;85.31;100824.81;5056317;28;20028;-83
2021/07/28 03:22:55;;;;;;;62.97;26.27;;;;;;;15.54;85.56;100822.50;5055334;28;20063;-83
2021/07/28 03:25:20;;;;;;;59.30;25.77;;;;;;;15.54;85.80;100818.97;5055621;28;20502;-83
2021/07/28 03:27:46;;;;;;;61.50;26.00;;;;;;;15.53;85.88;100826.13;5056524;28;20047;-84
2021/07/28 03:30:11;;;;;;;55.83;24.70;;;;;;;15.63;85.41;100823.63;5057613;28;20369;-83
2021/07/28 03:32:37;;;;;;;63.17;25.17;;;;;;;15.52;85.93;100832.41;5057993;28;20445;-83
2021/07/28 03:35:02;;;;;;;57.22;25.77;;;;;;;15.60;85.88;100828.31;5049016;28;20088;-84
2021/07/28 03:37:28;;;;;;;65.07;26.27;;;;;;;15.50;86.01;100823.69;5055354;28;20116;-83
2021/07/28 03:40:00;;;;;;;60.97;27.00;;;;;;;15.56;86.20;100825.06;5054808;28;20453;-83
2021/07/28 03:42:32;;;;;;;64.20;26.85;;;;;;;15.60;86.12;100823.00;5054370;28;20047;-83
2021/07/28 03:44:58;;;;;;;62.25;27.20;;;;;;;15.64;85.93;100813.81;5054677;28;20033;-84
2021/07/28 03:47:25;;;;;;;64.28;27.63;;;;;;;15.60;86.02;100809.66;5053168;28;20029;-84
2021/07/28 03:49:50;;;;;;;58.95;26.48;;;;;;;15.63;85.99;100820.09;5054464;28;20103;-83
2021/07/28 03:52:16;;;;;;;68.75;28.45;;;;;;;15.67;86.12;100814.41;5054711;28;20028;-84
2021/07/28 03:54:43;;;;;;;75.43;29.42;;;;;;;15.66;86.37;100823.38;5054261;28;20067;-84
2021/07/28 03:57:12;;;;;;;69.88;29.60;;;;;;;15.70;86.33;100824.84;5054457;28;20068;-84
2021/07/28 03:59:38;;;;;;;64.38;28.48;;;;;;;15.73;86.13;100830.94;5052803;28;20515;-84
2021/07/28 04:02:03;;;;;;;64.43;28.00;;;;;;;15.85;85.90;100816.66;5054380;28;20028;-84
2021/07/28 04:04:29;;;;;;;64.97;28.15;;;;;;;15.92;85.84;100827.72;5052372;28;20023;-84
2021/07/28 04:06:54;;;;;;;62.58;28.60;;;;;;;16.00;85.63;100821.84;5053970;28;20372;-84
2021/07/28 04:09:20;;;;;;;66.60;31.25;;;;;;;16.03;85.35;100811.78;5053637;28;20025;-85
2021/07/28 04:11:45;;;;;;;60.90;29.60;;;;;;;16.09;85.02;100815.78;5051979;28;20021;-83
2021/07/28 04:14:11;;;;;;;60.60;30.30;;;;;;;16.18;84.50;100814.22;5053642;28;20035;-82
2021/07/28 04:16:37;;;;;;;61.00;30.33;;;;;;;16.18;84.55;100814.22;5053779;28;20024;-82
2021/07/28 04:19:03;;;;;;;64.65;30.10;;;;;;;16.09;84.92;100812.25;5053571;28;20513;-81
2021/07/28 04:21:28;;;;;;;62.20;29.92;;;;;;;16.05;85.41;100809.84;5053707;28;20158;-83
2021/07/28 04:23:54;;;;;;;60.65;29.52;;;;;;;16.05;85.00;100807.16;5052541;28;20029;-83
2021/07/28 04:26:19;;;;;;;65.05;30.13;;;;;;;16.09;84.91;100809.59;5053372;28;20033;-82
2021/07/28 04:28:44;;;;;;;64.05;30.55;;;;;;;16.22;84.70;100806.84;5053665;28;20025;-81
2021/07/28 04:31:10;;;;;;;67.90;31.85;;;;;;;16.18;85.13;100807.06;5054080;28;20459;-82
2021/07/28 04:33:35;;;;;;;61.72;31.50;;;;;;;16.24;84.89;100811.06;5059254;23;20049;-83
2021/07/28 04:36:01;;;;;;;62.70;30.30;;;;;;;16.34;84.32;100805.03;5003191;28;20087;-83
2021/07/28 04:38:27;;;;;;;55.42;30.15;;;;;;;16.36;84.29;100813.75;5053236;28;20045;-82
2021/07/28 04:40:53;;;;;;;56.08;29.85;;;;;;;16.36;84.27;100808.44;5035556;28;20395;-82
2021/07/28 04:43:18;;;;;;;57.00;30.48;;;;;;;16.51;83.83;100795.69;5051589;28;20051;-84
2021/07/28 04:45:44;;;;;;;58.72;30.25;;;;;;;16.67;83.39;100804.19;5035308;28;20032;-81
2021/07/28 04:48:09;;;;;;;57.30;29.20;;;;;;;16.48;83.55;100796.78;5053177;28;20036;-81
2021/07/28 04:50:35;;;;;;;53.78;28.85;;;;;;;16.73;83.16;100796.66;5052720;28;20055;-82
2021/07/28 04:53:00;;;;;;;51.90;27.98;;;;;;;16.72;83.07;100809.16;5052796;28;20025;-82
2021/07/28 04:55:26;;;;;;;49.53;27.80;;;;;;;16.65;83.54;100808.78;5053598;28;20440;-82
2021/07/28 04:57:51;;;;;;;52.20;27.95;;;;;;;16.67;83.20;100803.34;5056178;28;20028;-82
2021/07/28 05:00:17;;;;;;;51.40;29.73;;;;;;;16.75;83.51;100802.72;5066045;28;20027;-84
2021/07/28 05:02:42;;;;;;;50.10;27.73;;;;;;;16.79;83.21;100798.81;5065624;28;20558;-83
2021/07/28 05:05:08;;;;;;;50.42;28.77;;;;;;;16.69;83.44;100796.06;5055842;28;20045;-84
2021/07/28 05:07:34;;;;;;;50.63;28.40;;;;;;;16.83;83.25;100799.44;5054095;28;20036;-84
2021/07/28 05:09:59;;;;;;;44.00;26.45;;;;;;;16.71;83.32;100802.09;5053624;28;20028;-83
2021/07/28 05:12:25;;;;;;;54.38;28.98;;;;;;;16.66;83.82;100799.81;5035714;28;20333;-83
2021/07/28 05:14:50;;;;;;;46.83;26.20;;;;;;;16.75;83.36;100800.91;5053795;28;20029;-83
2021/07/28 05:17:18;;;;;;;48.47;27.65;;;;;;;16.90;83.50;100803.28;5035153;28;20037;-83
2021/07/28 05:19:43;;;;;;;48.53;27.48;;;;;;;17.04;82.65;100803.03;5035327;28;20109;-83
2021/07/28 05:22:09;;;;;;;44.45;26.00;;;;;;;17.02;82.62;100804.16;5052672;28;20029;-83
2021/07/28 05:24:34;;;;;;;46.90;26.00;;;;;;;17.13;81.86;100800.63;5034737;28;20044;-83
2021/07/28 05:26:59;;;;;;;43.90;26.65;;;;;;;17.29;81.54;100795.72;5052514;28;20025;-83
2021/07/28 05:29:25;;;;;;;42.17;24.88;;;;;;;17.18;81.66;100798.41;5035166;28;20032;-83
2021/07/28 05:31:50;;;;;;;41.65;25.88;;;;;;;17.08;81.95;100795.66;5052721;28;20025;-82
2021/07/28 05:34:16;;;;;;;43.10;25.77;;;;;;;16.97;82.19;100796.50;5052625;28;20045;-83
2021/07/28 05:36:41;;;;;;;42.08;25.17;;;;;;;16.90;82.31;100792.63;5053477;28;20037;-83
2021/07/28 05:39:07;;;;;;;38.85;23.73;;;;;;;17.11;81.62;100802.56;5036482;28;20036;-83
2021/07/28 05:41:32;;;;;;;35.70;23.13;;;;;;;17.04;81.94;100794.16;5019905;28;20258;-84
2021/07/28 05:43:58;;;;;;;38.65;25.00;;;;;;;17.35;81.07;100801.53;5055850;28;20043;-83
2021/07/28 05:46:23;;;;;;;37.08;23.05;;;;;;;17.21;81.03;100800.00;5055368;28;20037;-84
2021/07/28 05:48:49;;;;;;;35.40;23.42;;;;;;;17.46;80.11;100796.16;5053262;28;20090;-83
2021/07/28 05:51:14;;;;;;;35.20;23.25;;;;;;;17.40;79.90;100791.31;5054140;28;20033;-82
2021/07/28 05:53:40;;;;;;;33.42;21.77;;;;;;;17.35;80.41;100801.53;5054350;28;20086;-84
2021/07/28 05:56:05;;;;;;;32.00;21.52;;;;;;;17.51;79.75;100801.94;5054445;28;20039;-83
2021/07/28 05:58:30;;;;;;;34.05;22.65;;;;;;;17.64;78.91;100798.25;5037881;28;20029;-82
2021/07/28 06:00:56;;;;;;;31.98;20.77;;;;;;;17.73;78.88;100797.47;5056559;28;20028;-83
2021/07/28 06:03:22;;;;;;;29.35;20.92;;;;;;;17.62;79.03;100794.88;5039109;28;20108;-83
2021/07/28 06:05:47;;;;;;;30.70;20.67;;;;;;;17.63;79.22;100802.75;5060757;28;20041;-82
2021/07/28 06:08:12;;;;;;;31.88;21.38;;;;;;;17.49;79.66;100795.91;5064066;28;20040;-82
2021/07/28 06:10:38;;;;;;;32.40;21.80;;;;;;;17.73;79.21;100791.28;5062956;28;20066;-83
2021/07/28 06:13:03;;;;;;;30.80;22.65;;;;;;;18.01;78.22;100800.47;5059964;28;20302;-83
2021/07/28 06:15:29;;;;;;;31.42;21.77;;;;;;;18.00;78.25;100800.59;5057718;28;20379;-82
2021/07/28 06:17:55;;;;;;;29.00;21.08;;;;;;;17.91;77.41;100796.88;5058969;28;20032;-83
2021/07/28 06:20:21;;;;;;;31.13;21.10;;;;;;;18.06;76.98;100803.59;5038690;28;20487;-83
2021/07/28 06:22:46;;;;;;;29.00;20.33;;;;;;;17.97;77.55;100793.69;5055940;28;20033;-81
2021/07/28 06:25:12;;;;;;;27.33;18.95;;;;;;;17.93;77.81;100794.94;5056326;28;20025;-82
2021/07/28 06:27:38;;;;;;;24.85;17.40;;;;;;;17.95;76.33;100800.16;5038193;28;20120;-82
2021/07/28 06:30:03;;;;;;;24.55;16.05;;;;;;;17.87;76.82;100795.47;5055627;28;20039;-81
2021/07/28 06:32:29;;;;;;;23.48;16.20;;;;;;;17.92;76.92;100796.75;5037673;28;20029;-81
2021/07/28 06:34:54;;;;;;;21.60;15.43;;;;;;;17.95;76.97;100797.50;5055365;28;20087;-82
2021/07/28 06:37:19;;;;;;;22.30;15.55;;;;;;;18.13;76.00;100795.94;5055372;28;20037;-83
2021/07/28 06:39:45;;;;;;;20.00;14.43;;;;;;;18.05;76.24;100787.69;5037625;28;20033;-82
2021/07/28 06:42:10;;;;;;;21.40;14.20;;;;;;;18.01;75.94;100795.13;5055400;28;20035;-83
2021/07/28 06:44:36;;;;;;;18.27;12.93;;;;;;;17.81;75.82;100786.13;5037380;28;20017;-82
2021/07/28 06:47:01;;;;;;;17.50;12.65;;;;;;;18.01;75.60;100788.94;5055352;28;20471;-82
2021/07/28 06:49:27;;;;;;;19.50;12.82;;;;;;;18.10;74.83;100796.16;5055107;28;20053;-83
2021/07/28 06:51:52;;;;;;;15.68;11.77;;;;;;;18.00;74.58;100793.44;5055242;28;20025;-83
2021/07/28 06:54:18;;;;;;;19.10;12.73;;;;;;;18.33;73.99;100804.06;5055508;28;20025;-82
2021/07/28 06:56:43;;;;;;;13.90;11.52;;;;;;;18.46;73.92;100798.50;5054456;28;20029;-81
2021/07/28 06:59:09;;;;;;;15.00;11.77;;;;;;;18.84;72.72;100801.44;5034939;28;20044;-81
2021/07/28 07:01:34;;;;;;;16.25;11.35;;;;;;;18.56;72.56;100798.50;5054835;28;20031;-83
2021/07/28 07:03:59;;;;;;;13.55;11.35;;;;;;;18.94;71.97;100804.13;5054795;28;20492;-82
2021/07/28 07:06:25;;;;;;;17.33;11.57;;;;;;;19.26;71.32;100796.88;5054517;28;20045;-84
2021/07/28 07:08:50;;;;;;;15.63;11.52;;;;;;;18.97;71.58;100803.84;5054786;28;20036;-83
2021/07/28 07:11:16;;;;;;;15.05;11.35;;;;;;;19.10;70.51;100798.28;5036546;28;20031;-82
2021/07/28 07:13:42;;;;;;;18.33;11.35;;;;;;;19.19;69.97;100801.94;5019738;28;20411;-83
2021/07/28 07:16:07;;;;;;;14.02;11.32;;;;;;;19.44;69.52;100793.50;5054467;28;20021;-81
2021/07/28 07:18:33;;;;;;;13.35;11.40;;;;;;;19.00;70.99;100782.13;5054502;28;20025;-83
2021/07/28 07:20:58;;;;;;;16.15;11.05;;;;;;;19.36;69.93;100794.22;5054502;28;20031;-81
2021/07/28 07:23:23;;;;;;;14.32;11.55;;;;;;;19.02;71.33;100793.56;5054585;28;20039;-78
2021/07/28 07:25:49;;;;;;;13.43;11.35;;;;;;;19.14;70.29;100788.97;5054198;28;20033;-81
2021/07/28 07:28:14;;;;;;;15.50;11.48;;;;;;;19.42;69.77;100783.75;5036979;28;20181;-83
2021/07/28 07:30:40;;;;;;;16.20;11.35;;;;;;;19.16;69.97;100787.00;5054570;28;20025;-82
2021/07/28 07:35:50;;;;;;;14.18;11.65;;;;;;;19.28;69.62;100795.75;5054332;28;20033;-83
2021/07/28 07:38:15;;;;;;;14.80;11.75;;;;;;;19.40;69.79;100785.75;5054278;28;20098;-82
2021/07/28 07:40:40;;;;;;;16.15;11.20;;;;;;;19.76;69.33;100792.34;5054023;28;20104;-83
2021/07/28 07:43:07;;;;;;;13.50;10.38;;;;;;;19.98;68.32;100782.28;5054207;28;20029;-81
2021/07/28 07:45:33;;;;;;;14.43;10.40;;;;;;;19.50;69.76;100780.34;5053575;28;20094;-82
2021/07/28 07:47:59;;;;;;;17.08;10.32;;;;;;;19.76;69.04;100789.66;5053996;28;20025;-82
2021/07/28 07:50:24;;;;;;;12.80;9.82;;;;;;;19.68;69.42;100782.34;5053741;28;20025;-81
2021/07/28 07:52:50;;;;;;;13.90;9.90;;;;;;;19.67;69.12;100783.34;5053906;28;20044;-83
2021/07/28 07:55:15;;;;;;;11.10;9.65;;;;;;;19.92;68.38;100792.59;5054022;28;20036;-78
2021/07/28 07:57:41;;;;;;;12.68;9.93;;;;;;;19.83;68.62;100785.41;5053546;28;20029;-77
2021/07/28 08:00:09;;;;;;;15.05;10.57;;;;;;;19.86;67.87;100787.78;5053735;28;20477;-77
2021/07/28 08:02:34;;;;;;;14.73;9.93;;;;;;;19.74;68.25;100780.91;5055368;28;20044;-80
2021/07/28 08:05:00;;;;;;;13.90;9.85;;;;;;;19.74;68.16;100795.16;5054833;28;20032;-79
2021/07/28 08:07:25;;;;;;;17.00;10.30;;;;;;;19.85;67.13;100786.13;5055151;28;20029;-79
2021/07/28 08:09:50;;;;;;;10.98;9.13;;;;;;;19.88;67.44;100784.97;5057887;28;20044;-79
2021/07/28 08:12:16;;;;;;;13.93;9.77;;;;;;;19.94;68.00;100781.72;5058661;28;20041;-82
2021/07/28 08:14:41;;;;;;;14.18;9.35;;;;;;;20.19;67.06;100786.63;5055864;28;20017;-82
2021/07/28 08:17:07;;;;;;;13.30;9.70;;;;;;;20.00;67.94;100775.78;5037541;28;20379;-79
2021/07/28 08:19:32;;;;;;;13.57;9.48;;;;;;;19.79;67.72;100778.66;5037697;28;20432;-84
2021/07/28 08:21:58;;;;;;;12.32;9.30;;;;;;;19.89;67.99;100779.47;5055697;28;20493;-84
2021/07/28 08:24:23;;;;;;;12.00;9.43;;;;;;;20.38;66.13;100788.41;5055919;28;20039;-82
2021/07/28 08:26:48;;;;;;;13.30;9.85;;;;;;;20.54;65.62;100787.75;5055043;28;20070;-78
2021/07/28 08:29:14;;;;;;;11.68;9.35;;;;;;;20.27;66.29;100781.41;5053696;28;20024;-80
2021/07/28 08:31:39;;;;;;;12.27;9.43;;;;;;;20.66;66.00;100785.75;5055341;28;20029;-81
2021/07/28 08:34:05;;;;;;;12.48;10.23;;;;;;;20.66;65.08;100788.44;5062609;22;20059;-77
2021/07/28 08:36:32;;;;;;;11.23;9.30;;;;;;;20.82;65.60;100798.50;5038898;28;20109;-77
2021/07/28 08:38:57;;;;;;;14.75;9.18;;;;;;;20.53;65.63;100784.25;5056123;28;20028;-78
2021/07/28 08:41:23;;;;;;;14.02;9.50;;;;;;;20.51;65.36;100788.06;5054691;28;20028;-85
2021/07/28 08:43:53;;;;;;;12.50;9.15;;;;;;;20.79;65.12;100780.84;5053632;28;20025;-78
2021/07/28 08:46:18;;;;;;;12.50;8.80;;;;;;;20.28;65.76;100778.56;5020484;28;20029;-76
2021/07/28 08:48:44;;;;;;;14.27;9.30;;;;;;;20.09;66.45;100783.97;5020807;28;20425;-78
2021/07/28 08:51:09;;;;;;;9.98;8.55;;;;;;;20.33;66.29;100779.94;5005949;28;20021;-77
2021/07/28 08:53:35;;;;;;;16.10;8.73;;;;;;;20.68;65.43;100773.00;5057542;28;20070;-79
2021/07/28 08:56:01;;;;;;;10.02;8.27;;;;;;;20.95;64.52;100757.00;5058003;28;20040;-87
2021/07/28 08:58:27;;;;;;;12.10;8.43;;;;;;;21.23;63.69;100771.25;5056185;28;20079;-81
2021/07/28 09:00:53;;;;;;;13.38;8.45;;;;;;;21.20;63.38;100776.94;5056036;28;20025;-78
2021/07/28 09:03:19;;;;;;;11.30;7.88;;;;;;;20.84;64.14;100782.22;5055017;28;20025;-86
2021/07/28 09:05:54;;;;;;;10.90;8.73;;;;;;;20.66;65.15;100775.81;5055514;28;20463;-83
2021/07/28 09:08:40;;;;;;;11.88;8.13;;;;;;;20.64;65.90;100782.34;5023320;28;20097;-79
2021/07/28 09:11:06;;;;;;;12.95;8.68;;;;;;;20.63;66.41;100783.34;5059425;28;20028;-81
2021/07/28 09:13:32;;;;;;;14.10;9.02;;;;;;;19.47;70.49;100787.88;5056764;28;20075;-78
2021/07/28 09:15:59;;;;;;;12.85;9.73;;;;;;;18.64;74.70;100797.81;5058983;28;20104;-75
2021/07/28 09:18:32;;;;;;;14.38;10.27;;;;;;;18.35;76.31;100786.03;5040486;28;20476;-77
2021/07/28 09:20:58;;;;;;;14.15;10.73;;;;;;;18.05;77.94;100791.22;5057133;28;20037;-80
2021/07/28 09:23:32;;;;;;;14.65;11.05;;;;;;;17.63;79.24;100794.75;5054538;28;20387;-80
2021/07/28 09:25:59;;;;;;;16.95;12.00;;;;;;;17.51;80.42;100783.22;5052642;28;20032;-78
2021/07/28 09:28:24;;;;;;;15.45;12.38;;;;;;;17.60;80.18;100795.00;5053565;28;20025;-80
2021/07/28 09:30:49;;;;;;;19.75;13.18;;;;;;;17.63;80.58;100789.38;5056804;28;20029;-78
2021/07/28 09:33:17;;;;;;;20.92;13.73;;;;;;;17.36;81.66;100785.38;5056946;28;20037;-78
2021/07/28 09:35:55;;;;;;;20.05;14.35;;;;;;;17.38;81.63;100778.09;5037439;28;20052;-77
2021/07/28 09:38:36;;;;;;;20.10;15.70;;;;;;;17.18;82.14;100780.56;5057573;28;20037;-78
2021/07/28 09:41:26;;;;;;;24.92;17.17;;;;;;;17.47;81.96;100776.44;5057574;28;20025;-80
2021/07/28 09:43:54;;;;;;;22.38;15.68;;;;;;;17.49;81.36;100782.53;5058605;28;20155;-77
2021/07/28 09:46:35;;;;;;;22.52;16.38;;;;;;;17.67;80.84;100784.59;5056745;28;20033;-80
2021/07/28 09:49:03;;;;;;;17.85;13.95;;;;;;;17.58;79.81;100788.06;5057945;28;20032;-79
2021/07/28 09:51:33;;;;;;;21.50;14.43;;;;;;;17.56;80.83;100780.16;5060529;28;20021;-81
2021/07/28 09:54:05;;;;;;;19.80;15.02;;;;;;;17.63;81.25;100786.72;5057307;28;20021;-80
2021/07/28 09:56:38;;;;;;;;;;;;;;;17.79;81.15;100780.91;5057398;28;20460;-85
2021/07/28 09:59:04;;;;;;;22.43;15.23;;;;;;;17.55;81.81;100781.16;5076611;28;20264;-83
2021/07/28 10:01:29;;;;;;;22.00;15.95;;;;;;;17.48;81.84;100785.34;5062038;28;20071;-80
2021/07/28 10:03:56;;;;;;;22.73;16.58;;;;;;;17.62;81.67;100778.81;5054507;28;20036;-83
2021/07/28 10:06:23;;;;;;;20.85;16.15;;;;;;;17.55;81.21;100779.34;5020601;28;20037;-86
2021/07/28 10:08:51;;;;;;;21.55;16.73;;;;;;;17.62;81.49;100770.81;5038375;28;20520;-84
2021/07/28 10:11:16;;;;;;;23.90;17.83;;;;;;;17.75;82.00;100773.25;5040039;28;20475;-87
2021/07/28 10:13:42;;;;;;;23.98;17.05;;;;;;;17.85;80.64;100762.63;5039800;28;20025;-85
2021/07/28 10:16:07;;;;;;;21.67;15.85;;;;;;;18.03;80.11;100763.72;5040202;28;20030;-83
2021/07/28 10:18:32;;;;;;;22.50;15.48;;;;;;;17.99;79.50;100770.34;5042120;28;20029;-78
2021/07/28 10:20:58;;;;;;;27.33;14.55;;;;;;;18.02;79.28;100770.06;5042434;28;20032;-78
2021/07/28 10:23:24;;;;;;;16.48;13.52;;;;;;;18.01;79.10;100756.81;5021908;28;20480;-77
2021/07/28 10:25:49;;;;;;;18.55;13.57;;;;;;;18.21;78.82;100767.66;5055971;28;20037;-77
2021/07/28 10:28:16;;;;;;;21.75;13.93;;;;;;;18.30;78.38;100766.84;5055411;28;20037;-76
2021/07/28 10:30:45;;;;;;;15.85;13.13;;;;;;;18.22;77.77;100770.19;5021312;28;20025;-78
2021/07/28 10:33:29;;;;;;;17.92;13.52;;;;;;;18.45;77.71;100766.50;5037929;28;20037;-83
2021/07/28 10:35:54;;;;;;;18.70;12.73;;;;;;;18.47;76.41;100784.09;5056965;28;20531;-78
2021/07/28 10:38:20;;;;;;;15.45;11.75;;;;;;;18.65;76.04;100778.94;5025755;28;20029;-82
2021/07/28 10:40:59;;;;;;;18.65;11.15;;;;;;;18.64;74.76;100773.72;5055888;28;20383;-81
2021/07/28 10:43:24;;;;;;;14.43;11.05;;;;;;;19.03;74.08;100775.66;5037302;28;20489;-82
2021/07/28 10:45:54;;;;;;;12.70;10.48;;;;;;;19.39;73.58;100775.16;5055265;28;20033;-81
2021/07/28 10:48:41;;;;;;;20.55;10.65;;;;;;;19.70;72.71;100771.47;5055035;28;20483;-81
2021/07/28 10:51:06;;;;;;;14.93;9.30;;;;;;;19.50;71.30;100779.53;5055410;28;20420;-83
2021/07/28 10:53:47;;;;;;;15.50;9.85;;;;;;;19.45;71.43;100779.97;5055225;28;20029;-78
2021/07/28 10:56:12;;;;;;;13.80;9.70;;;;;;;19.48;71.65;100763.59;5037464;28;20025;-82
2021/07/28 10:58:38;;;;;;;14.88;9.60;;;;;;;19.39;71.10;100777.84;5037315;28;20468;-82
2021/07/28 11:01:03;;;;;;;13.13;10.23;;;;;;;19.20;71.56;100779.53;5054998;28;20025;-82
2021/07/28 11:03:29;;;;;;;13.98;9.73;;;;;;;19.28;72.36;100773.47;5055171;28;20040;-81
2021/07/28 11:06:12;;;;;;;15.40;9.95;;;;;;;19.37;71.80;100782.50;5054899;28;20100;-85
2021/07/28 11:08:38;;;;;;;14.50;10.00;;;;;;;19.48;70.99;100784.19;5055329;28;20098;-84
2021/07/28 11:11:03;;;;;;;14.27;10.13;;;;;;;19.49;70.93;100788.53;5055050;28;20426;-83
2021/07/28 11:13:30;;;;;;;11.57;9.73;;;;;;;19.10;72.56;100787.56;5037237;28;20028;-82